createdAt,value
2019-03-17T00:04:45.253Z,5.6
2019-03-17T00:10:08.626Z,6.8
2019-03-17T00:15:31.346Z,7.1
2019-03-17T00:20:54.005Z,7
2019-03-17T00:26:16.742Z,6
2019-03-17T00:31:39.442Z,6.3
2019-03-17T00:37:02.177Z,6.3
2019-03-17T00:42:24.910Z,7.4
2019-03-17T00:47:47.700Z,5.6
2019-03-17T00:53:10.522Z,7.2
2019-03-17T00:58:33.357Z,5.7
2019-03-17T01:03:57.175Z,6
2019-03-17T01:09:19.875Z,6
2019-03-17T01:14:42.545Z,6.5
2019-03-17T01:20:05.253Z,6.2
2019-03-17T01:25:27.977Z,4.8
2019-03-17T01:30:51.664Z,4.8
2019-03-17T01:36:14.499Z,5.6
2019-03-17T01:41:37.134Z,6.7
2019-03-17T01:47:00.395Z,3.9
2019-03-17T01:52:23.033Z,4.7
2019-03-17T01:57:45.701Z,4.3
2019-03-17T02:03:08.579Z,6.5
2019-03-17T02:08:32.579Z,6
2019-03-17T02:13:56.170Z,4.6
2019-03-17T02:19:18.930Z,4.9
2019-03-17T02:24:41.646Z,5.1
2019-03-17T02:30:04.275Z,5.3
2019-03-17T02:35:38.388Z,4.9
2019-03-17T02:40:50.930Z,6.6
2019-03-17T02:46:13.584Z,5.8
2019-03-17T02:51:36.193Z,5.5
2019-03-17T02:56:58.771Z,5.6
2019-03-17T03:02:21.378Z,7.5
2019-03-17T03:07:43.968Z,5.8
2019-03-17T03:13:06.621Z,5.1
2019-03-17T03:18:29.220Z,5
2019-03-17T03:23:51.882Z,7
2019-03-17T03:29:14.519Z,5.5
2019-03-17T03:34:37.166Z,6.3
2019-03-17T03:40:00.707Z,5.8
2019-03-17T03:45:23.282Z,10.6
2019-03-17T03:50:45.878Z,6.5
2019-03-17T03:56:08.528Z,10.6
2019-03-17T04:01:31.171Z,11.2
2019-03-17T04:06:53.781Z,7.7
2019-03-17T04:12:16.404Z,7.9
2019-03-17T04:17:39.036Z,8.3
2019-03-17T04:23:02.603Z,11.2
2019-03-17T04:28:25.240Z,8.2
2019-03-17T04:33:47.835Z,8.7
2019-03-17T04:39:10.481Z,8.4
2019-03-17T04:44:33.097Z,10.8
2019-03-17T04:49:55.708Z,11.4
2019-03-17T04:55:18.348Z,7.1
2019-03-17T05:00:41.877Z,10.4
2019-03-17T05:06:04.521Z,6.4
2019-03-17T05:11:27.138Z,7.1
2019-03-17T05:16:49.771Z,7.8
2019-03-17T05:22:12.358Z,7.7
2019-03-17T05:27:35.002Z,9.8
2019-03-17T05:32:57.608Z,7.7
2019-03-17T05:38:20.262Z,5.5
2019-03-17T05:43:42.886Z,7.6
2019-03-17T05:49:05.545Z,7.7
2019-03-17T05:54:28.167Z,7.1
2019-03-17T05:59:50.847Z,7.2
2019-03-17T06:05:13.457Z,7.1
2019-03-17T06:10:36.102Z,9
2019-03-17T06:16:00.469Z,9.6
2019-03-17T06:21:23.096Z,9.7
2019-03-17T06:26:45.695Z,9.8
2019-03-17T06:32:08.341Z,8.9
2019-03-17T06:37:31.464Z,9.3
2019-03-17T06:42:53.628Z,11
2019-03-17T06:48:16.233Z,6.8
2019-03-17T06:53:38.887Z,9.2
2019-03-17T06:59:02.234Z,6.8
2019-03-17T07:04:25.744Z,8.2
2019-03-17T07:09:48.691Z,7.7
2019-03-17T07:15:12.007Z,8.3
2019-03-17T07:20:45.197Z,7.5
2019-03-17T07:26:16.639Z,8.9
2019-03-17T07:31:39.260Z,2.9
2019-03-17T07:37:01.934Z,1.7
2019-03-17T07:42:24.647Z,2
2019-03-17T07:47:48.237Z,2.3
2019-03-17T07:53:10.968Z,3
2019-03-17T07:58:33.737Z,3.6
2019-03-17T08:03:56.426Z,2.1
2019-03-17T08:09:19.115Z,3.1
2019-03-17T08:14:42.158Z,1.6
2019-03-17T08:20:04.803Z,3
2019-03-17T08:25:27.475Z,3.1
2019-03-17T08:30:53.259Z,3.9
2019-03-17T08:36:13.764Z,2.8
2019-03-17T08:41:37.687Z,2.2
2019-03-17T08:46:59.369Z,2.5
2019-03-17T08:52:22.065Z,2.9
2019-03-17T08:57:44.798Z,1.4
2019-03-17T09:03:08.462Z,1.2
2019-03-17T09:08:35.149Z,1.4
2019-03-17T09:13:54.881Z,1.6
2019-03-17T09:19:17.566Z,1.8
2019-03-17T09:24:40.200Z,2.8
2019-03-17T09:30:02.881Z,2.5
2019-03-17T09:35:25.567Z,3.4
2019-03-17T09:40:48.247Z,1.6
2019-03-17T09:46:11.208Z,3
2019-03-17T09:51:33.884Z,2.1
2019-03-17T09:56:57.755Z,2.5
2019-03-17T10:02:20.834Z,3.3
2019-03-17T10:07:43.828Z,3.2
2019-03-17T10:13:07.186Z,4.5
2019-03-17T10:18:29.854Z,3.2
2019-03-17T10:23:52.501Z,3.6
2019-03-17T10:29:15.152Z,2.2
2019-03-17T10:34:37.787Z,3.5
2019-03-17T10:40:00.431Z,2.1
2019-03-17T10:45:23.141Z,3.3
2019-03-17T10:50:49.672Z,2.7
2019-03-17T10:56:09.545Z,2.6
2019-03-17T11:01:32.412Z,2.9
2019-03-17T11:06:55.272Z,3.1
2019-03-17T11:12:18.009Z,2
2019-03-17T11:17:40.672Z,2.4
2019-03-17T11:23:03.365Z,4.4
2019-03-17T11:28:26.036Z,3.4
2019-03-17T11:33:48.771Z,2.1
2019-03-17T11:39:12.274Z,2.7
2019-03-17T11:44:34.873Z,6.8
2019-03-17T11:49:57.731Z,1.1
2019-03-17T11:55:20.411Z,1
2019-03-17T12:00:43.583Z,1
2019-03-17T12:06:06.212Z,1.1
2019-03-17T12:11:29.058Z,1
2019-03-17T12:16:51.882Z,1.5
2019-03-17T12:22:14.551Z,0.8
2019-03-17T12:27:37.195Z,0.5
2019-03-17T12:32:59.983Z,0.8
2019-03-17T12:38:22.609Z,0.7
2019-03-17T12:43:45.263Z,1
2019-03-17T12:49:08.131Z,0.7
2019-03-17T12:54:32.187Z,1
2019-03-17T12:59:54.819Z,1.5
2019-03-17T13:05:18.705Z,2.7
2019-03-17T13:10:41.407Z,1.9
2019-03-17T13:16:04.064Z,1.3
2019-03-17T13:21:26.717Z,1.2
2019-03-17T13:26:50.850Z,1.9
2019-03-17T13:32:13.577Z,2.3
2019-03-17T13:37:36.225Z,1.8
2019-03-17T13:42:58.914Z,4
2019-03-17T13:48:21.641Z,2.9
2019-03-17T13:53:44.326Z,3.2
2019-03-17T13:59:07.758Z,1.6
2019-03-17T14:04:30.616Z,2
2019-03-17T14:09:53.437Z,1.3
2019-03-17T14:15:16.094Z,2
2019-03-17T14:20:38.963Z,2.2
2019-03-17T14:26:01.766Z,3.1
2019-03-17T14:31:24.493Z,2
2019-03-17T14:36:47.222Z,2.7
2019-03-17T14:42:09.888Z,2.7
2019-03-17T14:47:32.631Z,2.6
2019-03-17T14:52:55.278Z,2.6
2019-03-17T14:58:18.101Z,1.5
2019-03-17T15:03:41.422Z,2.5
2019-03-17T15:09:04.432Z,4.5
2019-03-17T15:14:28.228Z,9
2019-03-17T15:19:50.894Z,3.9
2019-03-17T15:25:13.694Z,1.9
2019-03-17T15:30:37.400Z,2.7
2019-03-17T15:36:00.066Z,2.6
2019-03-17T15:41:22.675Z,3
2019-03-17T15:46:45.366Z,2.4
2019-03-17T15:52:08.039Z,2.7
2019-03-17T15:57:32.158Z,2.7
2019-03-17T16:02:54.848Z,2.9
2019-03-17T16:08:17.492Z,3.2
2019-03-17T16:13:40.136Z,2.5
2019-03-17T16:19:02.934Z,2
2019-03-17T16:24:25.778Z,2.8
2019-03-17T16:29:48.473Z,2.9
2019-03-17T16:35:11.139Z,2.3
2019-03-17T16:40:33.783Z,3.2
2019-03-17T16:45:56.373Z,1.3
2019-03-17T16:51:19.105Z,3.7
2019-03-17T16:56:42.427Z,3.7
2019-03-17T17:02:05.214Z,3.6
2019-03-17T17:07:30.084Z,3.7
2019-03-17T17:12:53.014Z,2.1
2019-03-17T17:18:15.883Z,3.7
2019-03-17T17:23:38.685Z,2.6
2019-03-17T17:29:01.743Z,3.9
2019-03-17T17:34:24.629Z,3.1
2019-03-17T17:39:47.577Z,3.4
2019-03-17T17:45:10.394Z,5.4
2019-03-17T17:50:33.281Z,4.4
2019-03-17T17:55:56.104Z,2
2019-03-17T18:01:18.865Z,2.9
2019-03-17T18:06:41.542Z,2.6
2019-03-17T18:12:04.333Z,1.5
2019-03-17T18:17:27.386Z,1.6
2019-03-17T18:22:50.232Z,4
2019-03-17T18:28:13.222Z,4.9
2019-03-17T18:33:36.056Z,2.9
2019-03-17T18:38:59.308Z,4.6
2019-03-17T18:44:22.430Z,1.4
2019-03-17T18:49:45.239Z,2.9
2019-03-17T18:55:17.755Z,4.6
2019-03-17T19:00:40.749Z,2.7
2019-03-17T19:06:03.535Z,3.2
2019-03-17T19:11:26.495Z,2.3
2019-03-17T19:16:49.347Z,3.7
2019-03-17T19:22:13.995Z,3.5
2019-03-17T19:27:36.736Z,2.7
2019-03-17T19:32:59.466Z,2.4
2019-03-17T19:38:22.274Z,3.7
2019-03-17T19:43:45.982Z,3.5
2019-03-17T19:49:09.008Z,3.6
2019-03-17T19:54:32.093Z,2.8
2019-03-17T19:59:54.372Z,3.7
2019-03-17T20:05:17.344Z,3.9
2019-03-17T20:10:40.032Z,4
2019-03-17T20:16:02.665Z,3.5
2019-03-17T20:21:25.307Z,4.4
2019-03-17T20:26:47.890Z,5.1
2019-03-17T20:32:10.522Z,3.8
2019-03-17T20:37:33.179Z,3.7
2019-03-17T20:42:55.802Z,3.6
2019-03-17T20:48:18.500Z,4
2019-03-17T20:53:41.159Z,2.1
2019-03-17T20:59:03.773Z,5.6
2019-03-17T21:04:26.421Z,6.2
2019-03-17T21:09:49.651Z,4
2019-03-17T21:15:12.293Z,4.4
2019-03-17T21:20:34.941Z,3.8
2019-03-17T21:25:57.563Z,4.5
2019-03-17T21:31:20.186Z,4.8
2019-03-17T21:36:42.798Z,4.4
2019-03-17T21:42:05.422Z,4.6
2019-03-17T21:47:28.033Z,4.4
2019-03-17T21:52:50.632Z,5.3
2019-03-17T21:58:13.259Z,6.8
2019-03-17T22:03:35.876Z,4.5
2019-03-17T22:08:59.171Z,6.5
2019-03-17T22:14:21.775Z,4.9
2019-03-17T22:19:44.494Z,4.9
2019-03-17T22:25:07.103Z,2.7
2019-03-17T22:30:31.381Z,2.8
2019-03-17T22:35:53.983Z,2.8
2019-03-17T22:41:16.667Z,3.2
2019-03-17T22:46:39.893Z,2.6
2019-03-17T22:52:02.493Z,2.7
2019-03-17T22:57:27.155Z,5
2019-03-17T23:02:49.791Z,3.2
2019-03-17T23:08:12.381Z,3.6
2019-03-17T23:13:35.020Z,4.3
2019-03-17T23:18:57.643Z,3.4
2019-03-17T23:24:20.586Z,4.1
2019-03-17T23:29:43.251Z,6.1
2019-03-17T23:35:05.855Z,4.4
2019-03-17T23:40:28.470Z,3.9
2019-03-17T23:45:51.097Z,4.9
2019-03-17T23:51:14.704Z,5
2019-03-17T23:56:37.327Z,5.5
